Latest Coastal Weather Observations for Redland (Alexandra Hills)

IDQ60701

Issued at 12:22 pm EST Tuesday 26 May 2020 (issued every 10 minutes, with the page automatically refreshed every 10 minutes)

About coastal observations | Map of coastal stations | Coastal observations for QLD | Marine services | Other Formats
Station Details ID: 140007 Name: REDLAND (ALEXANDRA HILLS) Lat: -27.54 Lon: 153.24 Height: 50.53 m
Data from the previous 72 hours. | See also: Recent months at Redland (Alexandra Hills)
Date/Time
EST
Wind Sea
Height
m
Swell Vis
km
Cloud Weather Temp
°C
Press
hPa
Rain since
9am
mm
Dir  Spd
kts
Gust
kts
Height
m
Period
s
Dir
26/12:00pm W 4 7 - - - - - - - 21.6 - 0.0
26/11:30am WSW 4 8 - - - - - - - 21.3 - 0.0
26/11:00am WSW 5 9 - - - - - - - 20.6 - 0.0
26/10:30am W 4 7 - - - - - - - 19.9 - 0.0
26/10:00am WSW 3 5 - - - - - - - 19.2 - 0.0
26/09:30am WSW 4 7 - - - - - - - 18.1 - 0.0
26/09:00am WSW 4 6 - - - - - - - 16.9 - 0.0
26/08:30am WSW 5 9 - - - - - - - 15.6 - 0.0
26/08:00am WSW 6 9 - - - - - - - 14.5 - 0.0
26/07:30am WSW 7 10 - - - - - - - 13.2 - 0.0
26/07:00am W 6 9 - - - - - - - 12.4 - 0.0
26/06:30am WSW 6 8 - - - - - - - 11.9 - 0.0
26/06:00am WSW 7 11 - - - - - - - 12.2 - 0.0
26/05:30am WSW 6 10 - - - - - - - 11.8 - 0.0
26/05:00am WSW 6 8 - - - - - - - 12.0 - 0.0
26/04:30am WSW 5 7 - - - - - - - 12.2 - 0.0
26/04:00am W 5 7 - - - - - - - 12.7 - 0.0
26/03:30am WSW 3 5 - - - - - - - 10.9 - 0.0
26/03:00am WNW 4 6 - - - - - - - 13.0 - 0.0
26/02:30am WNW 4 6 - - - - - - - 13.5 - 0.0
26/02:00am WNW 4 6 - - - - - - - 13.2 - 0.0
26/01:30am WNW 4 6 - - - - - - - 13.5 - 0.0
26/01:00am WNW 4 5 - - - - - - - 14.1 - 0.0
26/12:30am WNW 3 5 - - - - - - - 14.2 - 0.0
26/12:00am WNW 3 4 - - - - - - - 14.4 - 0.0
 
Date/Time
EST
Wind Sea
Height
m
Swell Vis
km
Cloud Weather Temp
°C
Press
hPa
Rain since
9am
mm
Dir  Spd
kts
Gust
kts
Height
m
Period
s
Dir
25/11:30pm W 3 4 - - - - - - - 13.7 - 0.0
25/11:00pm WNW 3 5 - - - - - - - 15.6 - 0.0
25/10:30pm NW 4 5 - - - - - - - 16.1 - 0.0
25/10:00pm NW 3 5 - - - - - - - 16.0 - 0.0
25/09:30pm NNW 5 6 - - - - - - - 15.5 - 0.0
25/09:00pm NW 4 6 - - - - - - - 16.1 - 0.0
25/08:30pm NW 4 7 - - - - - - - 16.2 - 0.0
25/08:00pm NW 4 7 - - - - - - - 16.4 - 0.0
25/07:30pm NNW 3 4 - - - - - - - 16.1 - 0.0
25/07:00pm N 2 3 - - - - - - - 15.5 - 0.0
25/06:30pm CALM 0 0 - - - - - - - 15.5 - 0.0
25/06:00pm CALM 0 0 - - - - - - - 15.6 - 0.0
25/05:30pm N 2 3 - - - - - - - 17.1 - 0.0
25/05:00pm NNE 2 3 - - - - - - - 17.9 - 0.0
25/04:30pm NNE 3 5 - - - - - - - 19.2 - 0.0
25/04:00pm NNE 4 7 - - - - - - - 20.0 - 0.0
25/03:30pm NE 4 5 - - - - - - - 20.4 - 0.0
25/03:00pm NE 3 5 - - - - - - - 21.0 - 0.0
25/02:30pm NE 4 6 - - - - - - - 21.4 - 0.0
25/02:00pm W 3 7 - - - - - - - 22.4 - 0.0
25/01:30pm WSW 3 6 - - - - - - - 22.2 - 0.0
25/01:00pm WNW 5 8 - - - - - - - 21.8 - 0.0
25/12:30pm W 3 6 - - - - - - - 21.6 - 0.0
25/12:00pm SSW 3 9 - - - - - - - 21.0 - 0.0
25/11:30am SW 5 7 - - - - - - - 20.4 - 0.0
25/11:00am WSW 5 8 - - - - - - - 20.1 - 0.0
25/10:30am SW 6 9 - - - - - - - 19.4 - 0.0
25/10:00am WSW 5 7 - - - - - - - 18.7 - 0.0
25/09:30am SW 7 11 - - - - - - - 17.3 - 0.0
25/09:00am WSW 7 12 - - - - - - - 15.7 - 0.0
25/08:30am WSW 6 10 - - - - - - - 15.5 - 0.0
25/08:00am WSW 7 11 - - - - - - - 14.2 - 0.0
25/07:30am WSW 6 10 - - - - - - - 13.2 - 0.0
25/07:00am WSW 8 12 - - - - - - - 12.7 - 0.0
25/06:30am WSW 7 12 - - - - - - - 12.4 - 0.0
25/06:00am WSW 7 12 - - - - - - - 12.5 - 0.0
25/05:30am WSW 6 10 - - - - - - - 12.4 - 0.0
25/05:00am WSW 6 10 - - - - - - - 12.4 - 0.0
25/04:30am WSW 6 9 - - - - - - - 12.4 - 0.0
25/04:00am WSW 6 9 - - - - - - - 12.5 - 0.0
25/03:30am WSW 7 11 - - - - - - - 12.5 - 0.0
25/03:00am WSW 6 9 - - - - - - - 12.4 - 0.0
25/02:30am WSW 6 9 - - - - - - - 12.1 - 0.0
25/02:00am WSW 7 11 - - - - - - - 12.2 - 0.0
25/01:30am WSW 6 10 - - - - - - - 12.3 - 0.0
25/01:00am WSW 5 8 - - - - - - - 12.4 - 0.0
25/12:30am WSW 5 7 - - - - - - - 12.4 - 0.0
25/12:00am WSW 5 9 - - - - - - - 12.5 - 0.0
 
Date/Time
EST
Wind Sea
Height
m
Swell Vis
km
Cloud Weather Temp
°C
Press
hPa
Rain since
9am
mm
Dir  Spd
kts
Gust
kts
Height
m
Period
s
Dir
24/11:30pm WSW 4 7 - - - - - - - 12.8 - 0.0
24/11:00pm W 7 13 - - - - - - - 13.3 - 0.0
24/10:30pm WSW 7 12 - - - - - - - 13.4 - 0.0
24/10:00pm WSW 7 11 - - - - - - - 13.6 - 0.0
24/09:30pm W 8 14 - - - - - - - 13.8 - 0.0
24/09:00pm WSW 7 13 - - - - - - - 13.8 - 0.0
24/08:30pm WSW 7 13 - - - - - - - 14.2 - 0.0
24/08:00pm WSW 8 12 - - - - - - - 14.4 - 0.0
24/07:30pm WSW 7 13 - - - - - - - 14.7 - 0.0
24/07:00pm W 6 11 - - - - - - - 15.4 - 0.0
24/06:30pm W 6 12 - - - - - - - 15.7 - 0.0
24/06:00pm W 6 9 - - - - - - - 16.1 - 0.0
24/05:30pm WNW 5 9 - - - - - - - 16.6 - 0.0
24/05:00pm WNW 5 11 - - - - - - - 17.0 - 0.0
24/04:30pm WNW 5 12 - - - - - - - 18.0 - 0.0
24/04:00pm W 6 11 - - - - - - - 19.1 - 0.0
24/03:30pm W 5 9 - - - - - - - 19.5 - 0.0
24/03:00pm W 5 11 - - - - - - - 20.0 - 0.0
24/02:30pm WNW 6 9 - - - - - - - 19.7 - 0.0
24/02:00pm WSW 5 10 - - - - - - - 19.8 - 0.0
24/01:30pm WSW 4 8 - - - - - - - 19.3 - 0.0
24/01:00pm WSW 6 11 - - - - - - - 19.1 - 0.0
24/12:30pm W 5 10 - - - - - - - 18.7 - 0.0
24/12:00pm W 6 11 - - - - - - - 18.2 - 0.0
24/11:30am WSW 8 13 - - - - - - - 17.4 - 0.0
24/11:00am WSW 7 12 - - - - - - - 17.0 - 0.0
24/10:30am SW 6 13 - - - - - - - 16.3 - 0.0
24/10:00am SW 7 12 - - - - - - - 15.2 - 0.0
24/09:30am WSW 5 9 - - - - - - - 14.6 - 0.0
24/09:00am WSW 9 14 - - - - - - - 13.3 - 0.0
24/08:30am WSW 7 13 - - - - - - - 12.3 - 0.0
24/08:00am WSW 8 13 - - - - - - - 11.2 - 0.0
24/07:30am WSW 7 11 - - - - - - - 10.2 - 0.0
24/07:00am WSW 7 14 - - - - - - - 9.3 - 0.0
24/06:30am WSW 6 11 - - - - - - - 9.0 - 0.0
24/06:00am WSW 7 12 - - - - - - - 9.2 - 0.0
24/05:30am WSW 8 14 - - - - - - - 9.3 - 0.0
24/05:00am WSW 7 13 - - - - - - - 9.3 - 0.0
24/04:30am WSW 8 15 - - - - - - - 9.3 - 0.0
24/04:00am WSW 8 13 - - - - - - - 9.2 - 0.0
24/03:30am W 7 11 - - - - - - - 9.0 - 0.0
24/03:00am WSW 7 10 - - - - - - - 8.8 - 0.0
24/02:30am WSW 7 11 - - - - - - - 9.0 - 0.0
24/02:00am WSW 6 12 - - - - - - - 9.0 - 0.0
24/01:30am WSW 7 11 - - - - - - - 9.3 - 0.0
24/01:00am WSW 9 14 - - - - - - - 9.5 - 0.0
24/12:30am WSW 9 14 - - - - - - - 9.7 - 0.0
24/12:00am WSW 8 14 - - - - - - - 10.0 - 0.0
 
Date/Time
EST
Wind Sea
Height
m
Swell Vis
km
Cloud Weather Temp
°C
Press
hPa
Rain since
9am
mm
Dir  Spd
kts
Gust
kts
Height
m
Period
s
Dir
23/11:30pm WSW 6 9 - - - - - - - 10.3 - 0.0
23/11:00pm WSW 7 11 - - - - - - - 10.8 - 0.0
23/10:30pm WSW 8 16 - - - - - - - 11.1 - 0.0
23/10:00pm WSW 7 14 - - - - - - - 11.3 - 0.0
23/09:30pm WSW 6 14 - - - - - - - 11.5 - 0.0
23/09:00pm WSW 7 12 - - - - - - - 11.9 - 0.0
23/08:30pm W 7 12 - - - - - - - 12.1 - 0.0
23/08:00pm W 5 10 - - - - - - - 12.3 - 0.0
23/07:30pm W 8 15 - - - - - - - 12.8 - 0.0
23/07:00pm W 6 10 - - - - - - - 13.1 - 0.0
23/06:30pm W 5 10 - - - - - - - 13.3 - 0.0
23/06:00pm W 6 11 - - - - - - - 13.5 - 0.0
23/05:30pm W 5 10 - - - - - - - 13.4 - 0.0
23/05:00pm W 5 7 - - - - - - - 13.3 - 0.0
23/04:30pm W 5 8 - - - - - - - 13.7 - 0.0
23/04:00pm W 6 11 - - - - - - - 13.8 - 0.0
23/03:30pm W 6 11 - - - - - - - 13.7 - 0.0
23/03:00pm W 9 14 - - - - - - - 13.9 - 0.0
23/02:30pm W 8 14 - - - - - - - 14.0 - 0.0
23/02:00pm W 8 14 - - - - - - - 13.7 - 0.0
23/01:30pm W 7 12 - - - - - - - 14.1 - 0.0
23/01:00pm W 9 15 - - - - - - - 13.7 - 0.0
23/12:30pm W 6 12 - - - - - - - 13.5 - 0.0

Other formats

Comma delimited format used in spreadsheet applications
http://www.bom.gov.au/fwo/IDQ60701/IDQ60701.94561.axf

JavaScript Object Notation format (JSON) in row-major order
http://www.bom.gov.au/fwo/IDQ60701/IDQ60701.94561.json

Data quality

Most of these data are generated automatically and are frequently updated. Quality checks on data are not normally performed. It is possible for incorrect values to appear. Refer to information at About Latest Weather Observations and please check the disclaimer before using these data.